Terminal Aerodrome Forecast
Issued by NWS

Home | Current Version | Previous Version | Graphics & Text | Print | Product List | Glossary Off
Versions: 1 2 3 4 5 6 7 8 9 10 11 12 13 14 15 16 17 18 19

000
FTUS43 KLSX 211700
TAFSUS
TAF
KSUS 211720Z 2118/2218 32012G22KT P6SM FEW040
     FM220100 VRB03KT P6SM SKC
      TEMPO 2209/2212 3SM BR SCT005
     FM221500 01005KT P6SM SKC=

USA.gov is the U.S. government's official web portal to all federal, state and local government web resources and services.